createdAt,value
2023-05-18T00:01:14.711Z,96480.81
2023-05-18T00:03:42.207Z,96474.44
2023-05-18T00:06:10.098Z,96471.75
2023-05-18T00:08:38.321Z,96470.41
2023-05-18T00:11:06.456Z,96462.47
2023-05-18T00:13:33.186Z,96464.47
2023-05-18T00:16:00.126Z,96462.09
2023-05-18T00:18:27.964Z,96462.09
2023-05-18T00:21:00.663Z,96452.09
2023-05-18T00:23:32.840Z,96454.16
2023-05-18T00:26:00.760Z,96458.34
2023-05-18T00:28:27.994Z,96453.19
2023-05-18T00:30:55.702Z,96452.16
2023-05-18T00:33:23.262Z,96452.72
2023-05-18T00:35:50.948Z,96433.19
2023-05-18T00:38:17.878Z,96448.81
2023-05-18T00:40:44.707Z,96449.88
2023-05-18T00:43:12.262Z,96436.13
2023-05-18T00:45:38.874Z,96448.13
2023-05-18T00:48:06.173Z,96433.50
2023-05-18T00:50:33.031Z,96447.25
2023-05-18T00:53:00.505Z,96447.19
2023-05-18T00:55:28.648Z,96436.06
2023-05-18T00:57:57.378Z,96445.03
2023-05-18T01:00:24.438Z,96447.34
2023-05-18T01:02:51.912Z,96443.94
2023-05-18T01:05:20.030Z,96441.78
2023-05-18T01:07:47.870Z,96445.44
2023-05-18T01:10:17.332Z,96441.25
2023-05-18T01:12:58.313Z,96442.72
2023-05-18T01:15:37.200Z,96447.97
2023-05-18T01:18:46.950Z,96442.72
2023-05-18T01:21:46.275Z,96434.25
2023-05-18T01:24:26.017Z,96433.69
2023-05-18T01:31:06.063Z,96430.81
2023-05-18T01:33:32.666Z,96432.97
2023-05-18T01:35:59.524Z,96441.41
2023-05-18T01:38:28.324Z,96433.53
2023-05-18T01:41:18.636Z,96436.38
2023-05-18T01:44:05.469Z,96437.00
2023-05-18T01:46:40.463Z,96436.47
2023-05-18T01:49:13.403Z,96422.22
2023-05-18T01:51:47.061Z,96430.66
2023-05-18T01:54:17.357Z,96431.38
2023-05-18T01:56:46.993Z,96426.38
2023-05-18T01:59:14.930Z,96420.03
2023-05-18T02:01:41.548Z,96426.84
2023-05-18T02:04:11.635Z,96423.13
2023-05-18T02:06:38.226Z,96425.00
2023-05-18T02:09:05.652Z,96419.22
2023-05-18T02:11:32.840Z,96412.53
2023-05-18T02:14:00.691Z,96420.56
2023-05-18T02:16:27.396Z,96400.00
2023-05-18T02:18:54.575Z,96429.38
2023-05-18T02:21:22.127Z,96419.16
2023-05-18T02:23:48.683Z,96415.50
2023-05-18T02:26:15.254Z,96419.63
2023-05-18T02:28:41.898Z,96419.16
2023-05-18T02:31:10.128Z,96419.88
2023-05-18T02:33:42.695Z,96416.84
2023-05-18T02:36:14.031Z,96415.41
2023-05-18T02:38:43.846Z,96413.97
2023-05-18T02:41:11.442Z,96408.88
2023-05-18T02:43:38.094Z,96395.88
2023-05-18T02:46:05.108Z,96411.75
2023-05-18T02:48:33.862Z,96407.31
2023-05-18T02:51:00.417Z,96401.50
2023-05-18T02:53:27.607Z,96393.59
2023-05-18T02:56:03.281Z,96405.72
2023-05-18T02:58:38.732Z,96397.31
2023-05-18T03:01:12.205Z,96397.53
2023-05-18T03:03:44.927Z,96401.66
2023-05-18T03:06:11.532Z,96402.38
2023-05-18T03:08:38.123Z,96400.00
2023-05-18T03:11:04.880Z,96400.31
2023-05-18T03:13:31.426Z,96399.66
2023-05-18T03:15:58.901Z,96388.78
2023-05-18T03:18:25.921Z,96395.84
2023-05-18T03:20:53.781Z,96398.38
2023-05-18T03:23:20.451Z,96391.56
2023-05-18T03:25:53.668Z,96395.97
2023-05-18T03:28:22.576Z,96397.38
2023-05-18T03:30:49.230Z,96400.44
2023-05-18T03:33:15.890Z,96406.13
2023-05-18T03:35:43.460Z,96394.19
2023-05-18T03:38:10.574Z,96397.22
2023-05-18T03:40:41.195Z,96409.47
2023-05-18T03:43:07.754Z,96390.97
2023-05-18T03:45:34.421Z,96396.31
2023-05-18T03:48:01.123Z,96393.59
2023-05-18T03:50:29.481Z,96410.41
2023-05-18T03:52:56.563Z,96410.84
2023-05-18T03:55:23.975Z,96410.72
2023-05-18T03:57:50.702Z,96410.50
2023-05-18T04:00:17.627Z,96407.56
2023-05-18T04:02:44.242Z,96410.28
2023-05-18T04:05:12.864Z,96412.09
2023-05-18T04:07:44.104Z,96411.53
2023-05-18T04:10:12.124Z,96406.72
2023-05-18T04:12:39.162Z,96408.03
2023-05-18T04:15:06.610Z,96404.25
2023-05-18T04:17:34.051Z,96408.22
2023-05-18T04:20:02.013Z,96418.22
2023-05-18T04:22:31.248Z,96410.13
2023-05-18T04:24:57.838Z,96408.63
2023-05-18T04:27:25.053Z,96407.38
2023-05-18T04:29:51.928Z,96416.19
2023-05-18T04:32:19.076Z,96412.78
2023-05-18T04:34:49.544Z,96417.88
2023-05-18T04:37:17.973Z,96421.59
2023-05-18T04:39:45.877Z,96432.25
2023-05-18T04:42:14.585Z,96427.03
2023-05-18T04:44:42.344Z,96429.16
2023-05-18T04:47:08.943Z,96428.69
2023-05-18T04:49:36.781Z,96431.84
2023-05-18T04:52:06.569Z,96432.88
2023-05-18T04:54:33.124Z,96435.44
2023-05-18T04:56:59.808Z,96433.69
2023-05-18T04:59:26.536Z,96435.91
2023-05-18T05:01:54.858Z,96442.91
2023-05-18T05:04:23.687Z,96444.25
2023-05-18T05:06:50.489Z,96425.25
2023-05-18T05:09:17.334Z,96435.88
2023-05-18T05:11:44.371Z,96430.66
2023-05-18T05:14:11.167Z,96435.06
2023-05-18T05:16:38.054Z,96438.00
2023-05-18T05:19:04.712Z,96437.56
2023-05-18T05:21:32.141Z,96444.16
2023-05-18T05:23:58.859Z,96446.09
2023-05-18T05:26:27.112Z,96437.00
2023-05-18T05:28:53.689Z,96437.31
2023-05-18T05:31:20.262Z,96434.59
2023-05-18T05:33:46.815Z,96438.66
2023-05-18T05:36:13.858Z,96431.16
2023-05-18T05:38:40.808Z,96432.56
2023-05-18T05:41:07.792Z,96429.25
2023-05-18T05:43:34.618Z,96430.16
2023-05-18T05:46:01.270Z,96437.81
2023-05-18T05:48:28.245Z,96431.09
2023-05-18T05:50:54.885Z,96432.25
2023-05-18T05:53:23.423Z,96428.41
2023-05-18T05:55:50.181Z,96432.94
2023-05-18T05:58:18.355Z,96431.50
2023-05-18T06:00:50.806Z,96436.53
2023-05-18T06:03:17.367Z,96435.78
2023-05-18T06:05:46.135Z,96442.94
2023-05-18T06:08:14.227Z,96442.72
2023-05-18T06:10:41.495Z,96441.97
2023-05-18T06:13:09.031Z,96444.13
2023-05-18T06:15:42.455Z,96438.63
2023-05-18T06:18:10.852Z,96443.66
2023-05-18T06:20:39.312Z,96451.81
2023-05-18T06:23:06.038Z,96440.81
2023-05-18T06:25:44.135Z,96448.72
2023-05-18T06:28:39.583Z,96444.53
2023-05-18T06:31:23.562Z,96441.94
2023-05-18T06:33:54.551Z,96442.75
2023-05-18T06:36:21.193Z,96440.94
2023-05-18T06:38:47.844Z,96444.94
2023-05-18T06:41:14.863Z,96447.31
2023-05-18T06:43:41.621Z,96448.94
2023-05-18T06:46:22.798Z,96445.19
2023-05-18T06:48:53.945Z,96450.72
2023-05-18T06:51:20.925Z,96446.84
2023-05-18T06:53:47.633Z,96448.94
2023-05-18T06:56:14.633Z,96447.13
2023-05-18T06:58:43.395Z,96444.47
2023-05-18T07:01:11.049Z,96451.59
2023-05-18T07:03:37.691Z,96450.53
2023-05-18T07:06:04.956Z,96453.97
2023-05-18T07:08:32.277Z,96453.19
2023-05-18T07:10:59.363Z,96443.69
2023-05-18T07:13:26.019Z,96452.13
2023-05-18T07:15:52.639Z,96452.09
2023-05-18T07:18:19.210Z,96446.28
2023-05-18T07:20:45.726Z,96449.44
2023-05-18T07:23:12.258Z,96449.44
2023-05-18T07:25:38.766Z,96450.19
2023-05-18T07:28:05.661Z,96445.94
2023-05-18T07:30:32.839Z,96448.03
2023-05-18T07:32:59.564Z,96452.50
2023-05-18T07:35:27.297Z,96449.84
2023-05-18T07:37:54.130Z,96447.44
2023-05-18T07:40:21.347Z,96450.88
2023-05-18T07:42:47.853Z,96453.00
2023-05-18T07:45:14.425Z,96453.94
2023-05-18T07:47:41.064Z,96452.34
2023-05-18T07:50:08.159Z,96456.56
2023-05-18T07:52:34.727Z,96445.78
2023-05-18T07:55:01.648Z,96445.22
2023-05-18T07:57:30.599Z,96453.53
2023-05-18T07:59:57.129Z,96456.84
2023-05-18T08:02:23.784Z,96451.81
2023-05-18T08:04:50.538Z,96449.25
2023-05-18T08:07:18.405Z,96453.16
2023-05-18T08:09:44.992Z,96448.16
2023-05-18T08:12:11.548Z,96448.41
2023-05-18T08:14:38.193Z,96448.41
2023-05-18T08:17:05.119Z,96452.59
2023-05-18T08:19:31.922Z,96445.72
2023-05-18T08:21:59.116Z,96449.56
2023-05-18T08:24:25.841Z,96447.44
2023-05-18T08:26:52.570Z,96450.59
2023-05-18T08:29:19.343Z,96458.94
2023-05-18T08:31:49.048Z,96453.63
2023-05-18T08:34:16.198Z,96452.84
2023-05-18T08:36:45.524Z,96442.56
2023-05-18T08:39:12.833Z,96444.25
2023-05-18T08:41:48.483Z,96440.41
2023-05-18T08:44:20.568Z,96447.09
2023-05-18T08:46:51.058Z,96432.19
2023-05-18T08:49:19.536Z,96442.78
2023-05-18T08:51:48.626Z,96441.66
2023-05-18T08:54:23.009Z,96434.78
2023-05-18T08:56:52.584Z,96440.06
2023-05-18T08:59:24.513Z,96439.00
2023-05-18T09:01:52.347Z,96424.75
2023-05-18T09:04:20.041Z,96430.88
2023-05-18T09:06:48.264Z,96434.78
2023-05-18T09:09:15.157Z,96431.94
2023-05-18T09:11:42.062Z,96430.72
2023-05-18T09:14:08.611Z,96423.22
2023-05-18T09:16:35.650Z,96431.94
2023-05-18T09:19:02.459Z,96433.84
2023-05-18T09:21:31.401Z,96439.34
2023-05-18T09:24:00.459Z,96429.81
2023-05-18T09:26:27.527Z,96442.91
2023-05-18T09:28:54.800Z,96427.00
2023-05-18T09:31:24.603Z,96444.53
2023-05-18T09:33:52.365Z,96442.66
2023-05-18T09:36:25.097Z,96439.50
2023-05-18T09:38:52.262Z,96440.81
2023-05-18T09:41:18.965Z,96437.22
2023-05-18T09:43:48.417Z,96437.50
2023-05-18T09:46:14.996Z,96432.28
2023-05-18T09:48:43.980Z,96446.63
2023-05-18T09:51:16.124Z,96432.16
2023-05-18T09:53:43.461Z,96441.69
2023-05-18T09:56:12.313Z,96431.94
2023-05-18T09:58:42.592Z,96428.56
2023-05-18T10:01:09.339Z,96445.69
2023-05-18T10:03:38.091Z,96446.44
2023-05-18T10:06:06.783Z,96439.22
2023-05-18T10:08:34.750Z,96445.97
2023-05-18T10:11:01.773Z,96442.38
2023-05-18T10:13:31.511Z,96442.16
2023-05-18T10:16:00.482Z,96438.44
2023-05-18T10:18:34.243Z,96440.91
2023-05-18T10:21:03.430Z,96443.22
2023-05-18T10:23:34.958Z,96436.63
2023-05-18T10:26:06.326Z,96431.56
2023-05-18T10:28:42.739Z,96441.91
2023-05-18T10:31:09.804Z,96437.41
2023-05-18T10:33:38.275Z,96448.69
2023-05-18T10:36:05.838Z,96440.75
2023-05-18T10:38:33.625Z,96436.50
2023-05-18T10:41:01.183Z,96433.03
2023-05-18T10:43:28.560Z,96428.50
2023-05-18T10:45:57.533Z,96431.66
2023-05-18T10:48:25.051Z,96428.97
2023-05-18T10:50:53.698Z,96436.34
2023-05-18T10:53:26.839Z,96429.19
2023-05-18T10:55:54.575Z,96434.78
2023-05-18T10:58:25.700Z,96434.66
2023-05-18T11:01:07.908Z,96420.03
2023-05-18T11:03:41.028Z,96431.31
2023-05-18T11:06:08.993Z,96428.38
2023-05-18T11:08:44.568Z,96426.09
2023-05-18T11:11:11.226Z,96423.41
2023-05-18T11:13:44.260Z,96429.28
2023-05-18T11:16:11.007Z,96428.13
2023-05-18T11:18:42.093Z,96424.09
2023-05-18T11:21:36.340Z,96430.47
2023-05-18T11:24:31.594Z,96420.50
2023-05-18T11:27:03.469Z,96427.59
2023-05-18T11:29:31.763Z,96436.81
2023-05-18T11:31:58.929Z,96427.47
2023-05-18T11:34:44.637Z,96424.78
2023-05-18T11:37:16.096Z,96428.56
2023-05-18T11:39:59.695Z,96438.16
2023-05-18T11:42:33.225Z,96429.19
2023-05-18T11:45:06.610Z,96442.09
2023-05-18T11:47:33.688Z,96428.75
2023-05-18T11:50:00.917Z,96434.78
2023-05-18T11:52:27.717Z,96442.91
2023-05-18T11:54:59.082Z,96439.56
2023-05-18T11:57:29.788Z,96440.50
2023-05-18T11:59:58.365Z,96442.38
2023-05-18T12:02:27.237Z,96432.22
2023-05-18T12:04:56.407Z,96430.44
2023-05-18T12:07:25.313Z,96426.31
2023-05-18T12:09:52.276Z,96432.59
2023-05-18T12:12:23.944Z,96436.56
2023-05-18T12:14:57.942Z,96420.84
2023-05-18T12:17:47.511Z,96426.59
2023-05-18T12:20:16.599Z,96423.53
2023-05-18T12:22:52.286Z,96428.56
2023-05-18T12:25:19.787Z,96428.38
2023-05-18T12:27:50.153Z,96427.94
2023-05-18T12:30:40.544Z,96428.28
2023-05-18T12:33:07.879Z,96424.22
2023-05-18T12:35:34.696Z,96433.00
2023-05-18T12:38:02.166Z,96428.31
2023-05-18T12:40:44.574Z,96432.66
2023-05-18T12:43:11.515Z,96423.31
2023-05-18T12:45:38.312Z,96423.50
2023-05-18T12:48:06.265Z,96433.31
2023-05-18T12:50:33.216Z,96422.13
2023-05-18T12:53:01.750Z,96414.97
2023-05-18T12:55:30.957Z,96413.09
2023-05-18T12:58:06.226Z,96400.31
2023-05-18T13:00:33.812Z,96404.19
2023-05-18T13:03:15.166Z,96418.44
2023-05-18T13:05:44.854Z,96413.34
2023-05-18T13:08:19.889Z,96398.94
2023-05-18T13:10:50.889Z,96375.53
2023-05-18T13:13:22.204Z,96398.91
2023-05-18T13:15:51.096Z,96403.22
2023-05-18T13:18:17.618Z,96403.91
2023-05-18T13:20:49.642Z,96402.72
2023-05-18T13:23:18.829Z,96415.19
2023-05-18T13:25:46.787Z,96393.31
2023-05-18T13:28:16.902Z,96403.13
2023-05-18T13:30:45.092Z,96401.31
2023-05-18T13:33:12.724Z,96404.81
2023-05-18T13:35:42.131Z,96395.44
2023-05-18T13:38:09.748Z,96397.88
2023-05-18T13:40:36.388Z,96390.72
2023-05-18T13:43:03.043Z,96389.34
2023-05-18T13:45:30.964Z,96391.28
2023-05-18T13:47:57.651Z,96381.13
2023-05-18T13:50:26.177Z,96378.56
2023-05-18T13:52:53.417Z,96382.84
2023-05-18T13:55:20.096Z,96378.22
2023-05-18T13:57:47.650Z,96360.50
2023-05-18T14:00:17.380Z,96371.88
2023-05-18T14:02:45.040Z,96368.50
2023-05-18T14:05:12.494Z,96364.25
2023-05-18T14:07:41.040Z,96365.41
2023-05-18T14:10:09.816Z,96367.56
2023-05-18T14:12:37.159Z,96353.59
2023-05-18T14:15:05.283Z,96353.00
2023-05-18T14:17:32.752Z,96349.28
2023-05-18T14:19:59.706Z,96357.66
2023-05-18T14:22:27.500Z,96361.25
2023-05-18T14:24:54.161Z,96346.97
2023-05-18T14:27:20.818Z,96355.50
2023-05-18T14:29:48.212Z,96359.94
2023-05-18T14:32:14.903Z,96363.31
2023-05-18T14:34:41.448Z,96354.16
2023-05-18T14:37:08.102Z,96351.41
2023-05-18T14:39:36.012Z,96342.88
2023-05-18T14:42:02.602Z,96346.06
2023-05-18T14:44:29.415Z,96349.25
2023-05-18T14:46:56.154Z,96344.25
2023-05-18T14:49:22.782Z,96345.81
2023-05-18T14:51:49.539Z,96340.09
2023-05-18T14:54:16.172Z,96340.66
2023-05-18T14:56:42.754Z,96338.38
2023-05-18T14:59:09.907Z,96345.75
2023-05-18T15:01:36.505Z,96353.16
2023-05-18T15:04:03.393Z,96353.53
2023-05-18T15:06:29.952Z,96361.06
2023-05-18T15:08:56.821Z,96364.50
2023-05-18T15:11:23.422Z,96364.06
2023-05-18T15:13:50.083Z,96354.25
2023-05-18T15:16:19.594Z,96362.75
2023-05-18T15:18:46.910Z,96343.56
2023-05-18T15:21:13.629Z,96351.22
2023-05-18T15:23:40.181Z,96347.50
2023-05-18T15:26:08.926Z,96357.50
2023-05-18T15:28:35.959Z,96351.38
2023-05-18T15:31:02.570Z,96360.69
2023-05-18T15:33:29.123Z,96361.75
2023-05-18T15:35:55.667Z,96369.19
2023-05-18T15:38:23.067Z,96354.16
2023-05-18T15:40:50.409Z,96364.97
2023-05-18T15:43:17.326Z,96361.13
2023-05-18T15:45:44.140Z,96353.25
2023-05-18T15:48:11.230Z,96365.97
2023-05-18T15:50:37.853Z,96365.97
2023-05-18T15:53:04.448Z,96367.09
2023-05-18T15:55:31.062Z,96361.91
2023-05-18T15:57:57.552Z,96357.50
2023-05-18T16:00:24.334Z,96360.00
2023-05-18T16:02:51.163Z,96355.28
2023-05-18T16:05:17.845Z,96356.19
2023-05-18T16:07:46.111Z,96352.25
2023-05-18T16:10:14.204Z,96342.72
2023-05-18T16:12:40.927Z,96347.56
2023-05-18T16:15:07.839Z,96352.31
2023-05-18T16:17:34.433Z,96350.94
2023-05-18T16:20:03.522Z,96352.59
2023-05-18T16:22:30.656Z,96346.50
2023-05-18T16:24:58.884Z,96351.50
2023-05-18T16:27:25.639Z,96353.59
2023-05-18T16:29:52.235Z,96352.00
2023-05-18T16:32:18.881Z,96361.38
2023-05-18T16:34:45.548Z,96352.81
2023-05-18T16:37:12.133Z,96363.34
2023-05-18T16:39:38.678Z,96365.22
2023-05-18T16:42:05.517Z,96362.22
2023-05-18T16:44:32.916Z,96353.38
2023-05-18T16:46:59.528Z,96361.19
2023-05-18T16:49:26.129Z,96366.78
2023-05-18T16:51:52.923Z,96367.47
2023-05-18T16:54:19.450Z,96371.94
2023-05-18T16:56:45.965Z,96369.38
2023-05-18T16:59:12.561Z,96373.66
2023-05-18T17:01:39.238Z,96378.63
2023-05-18T17:04:05.918Z,96367.31
2023-05-18T17:06:32.697Z,96370.25
2023-05-18T17:08:59.240Z,96371.28
2023-05-18T17:11:26.949Z,96382.53
2023-05-18T17:13:54.335Z,96385.25
2023-05-18T17:16:22.100Z,96375.22
2023-05-18T17:18:49.404Z,96383.50
2023-05-18T17:21:16.552Z,96378.22
2023-05-18T17:23:43.168Z,96375.25
2023-05-18T17:26:09.819Z,96367.81
2023-05-18T17:28:36.375Z,96383.44
2023-05-18T17:31:03.822Z,96387.75
2023-05-18T17:33:30.765Z,96378.66
2023-05-18T17:35:57.522Z,96375.88
2023-05-18T17:38:24.108Z,96376.91
2023-05-18T17:40:50.605Z,96383.34
2023-05-18T17:43:17.146Z,96379.94
2023-05-18T17:45:43.713Z,96386.78
2023-05-18T17:48:10.330Z,96381.94
2023-05-18T17:50:37.884Z,96381.50
2023-05-18T17:53:04.936Z,96377.59
2023-05-18T17:55:31.951Z,96381.03
2023-05-18T17:58:01.014Z,96376.81
2023-05-18T18:00:27.970Z,96380.78
2023-05-18T18:02:55.395Z,96384.50
2023-05-18T18:05:22.155Z,96384.19
2023-05-18T18:07:48.689Z,96386.06
2023-05-18T18:10:15.301Z,96385.31
2023-05-18T18:12:42.105Z,96378.84
2023-05-18T18:15:09.240Z,96384.78
2023-05-18T18:17:35.790Z,96394.25
2023-05-18T18:20:02.562Z,96391.66
2023-05-18T18:22:29.117Z,96394.06
2023-05-18T18:24:56.671Z,96404.38
2023-05-18T18:27:23.327Z,96396.19
2023-05-18T18:29:49.860Z,96389.28
2023-05-18T18:32:16.698Z,96393.25
2023-05-18T18:34:43.268Z,96391.47
2023-05-18T18:37:09.849Z,96385.94
2023-05-18T18:39:36.674Z,96389.16
2023-05-18T18:42:03.437Z,96384.94
2023-05-18T18:44:29.992Z,96396.03
2023-05-18T18:46:56.745Z,96390.75
2023-05-18T18:49:23.364Z,96382.94
2023-05-18T18:51:50.831Z,96389.75
2023-05-18T18:54:17.370Z,96390.91
2023-05-18T18:56:44.665Z,96394.44
2023-05-18T18:59:11.579Z,96397.16
2023-05-18T19:01:38.522Z,96405.91
2023-05-18T19:04:05.158Z,96408.16
2023-05-18T19:06:32.079Z,96402.91
2023-05-18T19:08:58.696Z,96413.53
2023-05-18T19:11:26.788Z,96419.13
2023-05-18T19:13:53.330Z,96412.53
2023-05-18T19:16:21.545Z,96417.31
2023-05-18T19:18:48.542Z,96420.19
2023-05-18T19:21:15.264Z,96423.69
2023-05-18T19:23:41.799Z,96414.22
2023-05-18T19:26:08.914Z,96430.03
2023-05-18T19:28:35.943Z,96431.91
2023-05-18T19:31:02.536Z,96441.16
2023-05-18T19:33:29.135Z,96437.25
2023-05-18T19:35:55.763Z,96439.53
2023-05-18T19:38:22.349Z,96441.72
2023-05-18T19:40:48.854Z,96452.28
2023-05-18T19:43:15.948Z,96439.13
2023-05-18T19:45:42.578Z,96448.09
2023-05-18T19:48:09.126Z,96453.88
2023-05-18T19:50:35.956Z,96452.28
2023-05-18T19:53:02.467Z,96451.53
2023-05-18T19:55:29.415Z,96442.81
2023-05-18T19:57:56.226Z,96439.06
2023-05-18T20:00:22.812Z,96445.47
2023-05-18T20:02:49.357Z,96456.34
2023-05-18T20:05:18.701Z,96457.63
2023-05-18T20:07:45.675Z,96445.72
2023-05-18T20:10:12.313Z,96455.56
2023-05-18T20:12:39.118Z,96451.84
2023-05-18T20:15:07.274Z,96454.75
2023-05-18T20:17:33.884Z,96451.31
2023-05-18T20:20:00.687Z,96453.41
2023-05-18T20:22:27.285Z,96451.59
2023-05-18T20:24:54.829Z,96445.03
2023-05-18T20:27:21.558Z,96452.44
2023-05-18T20:29:48.196Z,96448.78
2023-05-18T20:32:14.814Z,96454.31
2023-05-18T20:34:44.268Z,96454.31
2023-05-18T20:37:11.209Z,96452.00
2023-05-18T20:39:39.847Z,96462.53
2023-05-18T20:42:06.905Z,96454.09
2023-05-18T20:44:35.045Z,96453.56
2023-05-18T20:47:01.612Z,96460.19
2023-05-18T20:49:28.295Z,96458.59
2023-05-18T20:51:54.800Z,96454.13
2023-05-18T20:54:21.548Z,96463.63
2023-05-18T20:56:48.848Z,96468.91
2023-05-18T20:59:16.195Z,96463.63
2023-05-18T21:01:42.978Z,96458.91
2023-05-18T21:04:12.461Z,96464.94
2023-05-18T21:06:40.820Z,96462.06
2023-05-18T21:09:08.044Z,96451.25
2023-05-18T21:11:34.906Z,96451.22
2023-05-18T21:14:01.388Z,96450.66
2023-05-18T21:16:28.020Z,96453.06
2023-05-18T21:18:54.613Z,96440.19
2023-05-18T21:21:22.002Z,96445.72
2023-05-18T21:23:48.979Z,96447.84
2023-05-18T21:26:16.113Z,96445.75
2023-05-18T21:28:42.737Z,96448.88
2023-05-18T21:31:09.319Z,96444.16
2023-05-18T21:33:36.162Z,96444.44
2023-05-18T21:36:02.877Z,96449.41
2023-05-18T21:38:29.662Z,96442.59
2023-05-18T21:40:56.728Z,96441.47
2023-05-18T21:43:23.836Z,96447.81
2023-05-18T21:45:50.879Z,96438.88
2023-05-18T21:48:17.491Z,96442.56
2023-05-18T21:50:44.247Z,96444.63
2023-05-18T21:53:11.047Z,96436.72
2023-05-18T21:55:37.567Z,96437.75
2023-05-18T21:58:04.279Z,96437.53
2023-05-18T22:00:31.607Z,96438.88
2023-05-18T22:02:58.806Z,96432.81
2023-05-18T22:05:25.511Z,96418.59
2023-05-18T22:07:52.319Z,96436.00
2023-05-18T22:10:19.078Z,96427.56
2023-05-18T22:12:45.957Z,96433.38
2023-05-18T22:15:12.808Z,96423.59
2023-05-18T22:17:39.499Z,96418.03
2023-05-18T22:20:11.147Z,96423.59
2023-05-18T22:22:38.227Z,96419.91
2023-05-18T22:25:05.154Z,96413.59
2023-05-18T22:27:33.682Z,96414.63
2023-05-18T22:30:00.322Z,96412.53
2023-05-18T22:32:26.887Z,96413.59
2023-05-18T22:34:55.729Z,96409.34
2023-05-18T22:37:22.351Z,96410.94
2023-05-18T22:39:48.908Z,96415.69
2023-05-18T22:42:15.492Z,96412.81
2023-05-18T22:44:42.051Z,96401.19
2023-05-18T22:47:09.381Z,96417.53
2023-05-18T22:49:36.069Z,96411.75
2023-05-18T22:52:04.456Z,96409.38
2023-05-18T22:54:31.309Z,96408.09
2023-05-18T22:56:59.468Z,96409.94
2023-05-18T22:59:26.044Z,96411.00
2023-05-18T23:01:54.598Z,96415.19
2023-05-18T23:04:21.438Z,96414.66
2023-05-18T23:06:49.655Z,96409.41
2023-05-18T23:09:16.994Z,96396.22
2023-05-18T23:11:44.632Z,96409.41
2023-05-18T23:14:11.233Z,96402.25
2023-05-18T23:16:42.730Z,96403.09
2023-05-18T23:19:10.189Z,96411.75
2023-05-18T23:21:37.003Z,96405.69
2023-05-18T23:24:04.541Z,96398.31
2023-05-18T23:26:31.074Z,96408.09
2023-05-18T23:28:57.617Z,96405.44
2023-05-18T23:31:24.154Z,96394.63
2023-05-18T23:33:50.986Z,96398.31
2023-05-18T23:36:20.124Z,96401.50
2023-05-18T23:38:48.828Z,96395.72
2023-05-18T23:41:16.051Z,96402.56
2023-05-18T23:43:42.887Z,96396.50
2023-05-18T23:46:10.426Z,96390.94
2023-05-18T23:48:37.386Z,96402.28
2023-05-18T23:51:04.897Z,96399.94
2023-05-18T23:53:32.869Z,96405.97
2023-05-18T23:56:00.008Z,96385.16
2023-05-18T23:58:31.463Z,96393.06
